sensor_id;sensor_type;location;lat;lon;timestamp;pressure;altitude;pressure_sealevel;temperature;humidity
21504;BME280;10913;51.992;9.228;2023-03-01T00:02:17;101836.78;;;-1.43;88.06
21504;BME280;10913;51.992;9.228;2023-03-01T00:04:42;101833.19;;;-1.45;88.02
21504;BME280;10913;51.992;9.228;2023-03-01T00:07:08;101828.81;;;-1.46;87.98
21504;BME280;10913;51.992;9.228;2023-03-01T00:09:33;101826.22;;;-1.46;88.07
21504;BME280;10913;51.992;9.228;2023-03-01T00:11:58;101819.03;;;-1.50;88.23
21504;BME280;10913;51.992;9.228;2023-03-01T00:14:24;101831.78;;;-1.53;88.17
21504;BME280;10913;51.992;9.228;2023-03-01T00:16:49;101833.47;;;-1.54;88.65
21504;BME280;10913;51.992;9.228;2023-03-01T00:19:17;101828.97;;;-1.56;88.71
21504;BME280;10913;51.992;9.228;2023-03-01T00:21:43;101829.66;;;-1.59;88.60
21504;BME280;10913;51.992;9.228;2023-03-01T00:24:09;101829.66;;;-1.59;88.71
21504;BME280;10913;51.992;9.228;2023-03-01T00:26:35;101842.34;;;-1.63;88.89
21504;BME280;10913;51.992;9.228;2023-03-01T00:29:01;101835.34;;;-1.64;89.04
21504;BME280;10913;51.992;9.228;2023-03-01T00:31:29;101830.88;;;-1.67;89.09
21504;BME280;10913;51.992;9.228;2023-03-01T00:33:56;101824.78;;;-1.67;88.97
21504;BME280;10913;51.992;9.228;2023-03-01T00:36:23;101831.56;;;-1.69;88.94
21504;BME280;10913;51.992;9.228;2023-03-01T00:38:49;101830.56;;;-1.71;89.23
21504;BME280;10913;51.992;9.228;2023-03-01T00:41:16;101824.25;;;-1.75;89.11
21504;BME280;10913;51.992;9.228;2023-03-01T00:43:43;101822.34;;;-1.78;89.25
21504;BME280;10913;51.992;9.228;2023-03-01T00:46:12;101829.13;;;-1.80;89.25
21504;BME280;10913;51.992;9.228;2023-03-01T00:48:39;101830.75;;;-1.82;89.18
21504;BME280;10913;51.992;9.228;2023-03-01T00:51:25;101815.78;;;-1.86;89.03
21504;BME280;10913;51.992;9.228;2023-03-01T00:53:53;101817.38;;;-1.88;89.44
21504;BME280;10913;51.992;9.228;2023-03-01T00:56:20;101823.34;;;-1.89;89.67
21504;BME280;10913;51.992;9.228;2023-03-01T00:58:46;101825.16;;;-1.88;90.00
21504;BME280;10913;51.992;9.228;2023-03-01T01:01:13;101824.94;;;-1.91;89.79
21504;BME280;10913;51.992;9.228;2023-03-01T01:03:54;101817.97;;;-1.92;90.16
21504;BME280;10913;51.992;9.228;2023-03-01T01:06:29;101824.72;;;-1.94;90.09
21504;BME280;10913;51.992;9.228;2023-03-01T01:08:55;101819.53;;;-1.94;89.61
21504;BME280;10913;51.992;9.228;2023-03-01T01:11:23;101807.78;;;-2.02;89.95
21504;BME280;10913;51.992;9.228;2023-03-01T01:13:50;101809.75;;;-2.11;90.38
21504;BME280;10913;51.992;9.228;2023-03-01T01:16:17;101805.72;;;-2.19;91.19
21504;BME280;10913;51.992;9.228;2023-03-01T01:18:42;101802.84;;;-2.24;91.87
21504;BME280;10913;51.992;9.228;2023-03-01T01:21:14;101808.00;;;-2.24;91.79
21504;BME280;10913;51.992;9.228;2023-03-01T01:23:40;101796.75;;;-2.24;91.30
21504;BME280;10913;51.992;9.228;2023-03-01T01:26:12;101793.16;;;-2.26;91.01
21504;BME280;10913;51.992;9.228;2023-03-01T01:28:38;101794.75;;;-2.28;90.95
21504;BME280;10913;51.992;9.228;2023-03-01T01:31:04;101798.13;;;-2.29;91.12
21504;BME280;10913;51.992;9.228;2023-03-01T01:33:29;101792.06;;;-2.30;90.80
21504;BME280;10913;51.992;9.228;2023-03-01T01:35:55;101791.84;;;-2.33;90.51
21504;BME280;10913;51.992;9.228;2023-03-01T01:38:20;101784.75;;;-2.35;90.24
21504;BME280;10913;51.992;9.228;2023-03-01T01:40:47;101794.09;;;-2.37;90.33
21504;BME280;10913;51.992;9.228;2023-03-01T01:43:20;101800.00;;;-2.40;90.65
21504;BME280;10913;51.992;9.228;2023-03-01T01:45:47;101799.09;;;-2.40;91.07
21504;BME280;10913;51.992;9.228;2023-03-01T01:48:18;101784.38;;;-2.41;90.77
21504;BME280;10913;51.992;9.228;2023-03-01T01:50:45;101785.16;;;-2.42;90.89
21504;BME280;10913;51.992;9.228;2023-03-01T01:53:16;101791.13;;;-2.44;91.02
21504;BME280;10913;51.992;9.228;2023-03-01T01:55:47;101786.72;;;-2.45;91.30
21504;BME280;10913;51.992;9.228;2023-03-01T01:58:18;101776.16;;;-2.48;90.89
21504;BME280;10913;51.992;9.228;2023-03-01T02:00:44;101774.38;;;-2.49;91.49
21504;BME280;10913;51.992;9.228;2023-03-01T02:03:13;101778.53;;;-2.51;91.29
21504;BME280;10913;51.992;9.228;2023-03-01T02:06:03;101776.75;;;-2.52;91.57
21504;BME280;10913;51.992;9.228;2023-03-01T02:08:33;101773.94;;;-2.55;91.62
21504;BME280;10913;51.992;9.228;2023-03-01T02:11:00;101777.31;;;-2.56;91.58
21504;BME280;10913;51.992;9.228;2023-03-01T02:13:26;101777.31;;;-2.56;91.35
21504;BME280;10913;51.992;9.228;2023-03-01T02:15:53;101768.53;;;-2.58;91.46
21504;BME280;10913;51.992;9.228;2023-03-01T02:18:21;101772.81;;;-2.58;91.42
21504;BME280;10913;51.992;9.228;2023-03-01T02:23:24;101769.16;;;-2.62;91.62
21504;BME280;10913;51.992;9.228;2023-03-01T02:26:23;101776.91;;;-2.62;91.61
21504;BME280;10913;51.992;9.228;2023-03-01T02:28:54;101771.63;;;-2.63;92.26
21504;BME280;10913;51.992;9.228;2023-03-01T02:31:21;101767.25;;;-2.64;92.13
21504;BME280;10913;51.992;9.228;2023-03-01T02:34:06;101764.56;;;-2.66;91.67
21504;BME280;10913;51.992;9.228;2023-03-01T02:36:36;101762.75;;;-2.67;91.98
21504;BME280;10913;51.992;9.228;2023-03-01T02:39:04;101762.75;;;-2.67;92.08
21504;BME280;10913;51.992;9.228;2023-03-01T02:41:35;101763.44;;;-2.69;92.35
21504;BME280;10913;51.992;9.228;2023-03-01T02:44:01;101758.94;;;-2.72;91.97
21504;BME280;10913;51.992;9.228;2023-03-01T02:46:27;101753.53;;;-2.75;91.74
21504;BME280;10913;51.992;9.228;2023-03-01T02:48:54;101753.34;;;-2.78;91.49
21504;BME280;10913;51.992;9.228;2023-03-01T02:54:26;101735.84;;;-2.82;92.15
21504;BME280;10913;51.992;9.228;2023-03-01T02:56:54;101736.50;;;-2.85;92.43
21504;BME280;10913;51.992;9.228;2023-03-01T02:59:24;101740.00;;;-2.84;91.85
21504;BME280;10913;51.992;9.228;2023-03-01T03:01:52;101737.19;;;-2.87;91.82
21504;BME280;10913;51.992;9.228;2023-03-01T03:04:18;101735.41;;;-2.88;91.32
21504;BME280;10913;51.992;9.228;2023-03-01T03:06:47;101741.25;;;-2.91;91.60
21504;BME280;10913;51.992;9.228;2023-03-01T03:09:13;101733.38;;;-2.92;91.82
21504;BME280;10913;51.992;9.228;2023-03-01T03:11:39;101728.22;;;-2.92;91.66
21504;BME280;10913;51.992;9.228;2023-03-01T03:14:06;101727.31;;;-2.93;92.16
21504;BME280;10913;51.992;9.228;2023-03-01T03:16:47;101725.50;;;-2.94;91.94
21504;BME280;10913;51.992;9.228;2023-03-01T03:19:13;101720.22;;;-2.95;92.04
21504;BME280;10913;51.992;9.228;2023-03-01T03:21:39;101716.53;;;-2.99;92.36
21504;BME280;10913;51.992;9.228;2023-03-01T03:24:04;101712.97;;;-3.01;93.05
21504;BME280;10913;51.992;9.228;2023-03-01T03:26:31;101716.34;;;-3.02;92.38
21504;BME280;10913;51.992;9.228;2023-03-01T03:28:56;101715.44;;;-3.02;92.20
21504;BME280;10913;51.992;9.228;2023-03-01T03:31:22;101714.44;;;-3.04;92.16
21504;BME280;10913;51.992;9.228;2023-03-01T03:33:48;101711.63;;;-3.07;92.19
21504;BME280;10913;51.992;9.228;2023-03-01T03:36:17;101704.44;;;-3.12;92.42
21504;BME280;10913;51.992;9.228;2023-03-01T03:38:44;101713.00;;;-3.13;92.68
21504;BME280;10913;51.992;9.228;2023-03-01T03:41:11;101707.72;;;-3.14;92.28
21504;BME280;10913;51.992;9.228;2023-03-01T03:43:38;101717.94;;;-3.16;92.35
21504;BME280;10913;51.992;9.228;2023-03-01T03:46:04;101720.41;;;-3.17;92.10
21504;BME280;10913;51.992;9.228;2023-03-01T03:48:33;101725.38;;;-3.20;92.16
21504;BME280;10913;51.992;9.228;2023-03-01T03:50:59;101722.47;;;-3.25;92.17
21504;BME280;10913;51.992;9.228;2023-03-01T03:53:26;101720.66;;;-3.26;92.37
21504;BME280;10913;51.992;9.228;2023-03-01T03:55:52;101717.09;;;-3.28;92.30
21504;BME280;10913;51.992;9.228;2023-03-01T03:58:20;101722.25;;;-3.28;92.75
21504;BME280;10913;51.992;9.228;2023-03-01T04:00:47;101725.84;;;-3.26;92.97
21504;BME280;10913;51.992;9.228;2023-03-01T04:03:15;101717.97;;;-3.27;93.42
21504;BME280;10913;51.992;9.228;2023-03-01T04:05:41;101719.88;;;-3.25;94.07
21504;BME280;10913;51.992;9.228;2023-03-01T04:08:07;101718.41;;;-3.21;94.22
21504;BME280;10913;51.992;9.228;2023-03-01T04:10:45;101716.81;;;-3.19;93.73
21504;BME280;10913;51.992;9.228;2023-03-01T04:13:12;101715.13;;;-3.19;93.55
21504;BME280;10913;51.992;9.228;2023-03-01T04:15:38;101710.56;;;-3.23;93.03
21504;BME280;10913;51.992;9.228;2023-03-01T04:18:04;101702.38;;;-3.29;93.11
21504;BME280;10913;51.992;9.228;2023-03-01T04:20:32;101709.09;;;-3.31;93.58
21504;BME280;10913;51.992;9.228;2023-03-01T04:25:24;101706.06;;;-3.37;94.00
21504;BME280;10913;51.992;9.228;2023-03-01T04:27:50;101709.34;;;-3.39;94.32
21504;BME280;10913;51.992;9.228;2023-03-01T04:30:15;101710.16;;;-3.40;94.65
21504;BME280;10913;51.992;9.228;2023-03-01T04:32:41;101709.25;;;-3.41;94.41
21504;BME280;10913;51.992;9.228;2023-03-01T04:35:06;101712.63;;;-3.42;93.94
21504;BME280;10913;51.992;9.228;2023-03-01T04:37:32;101714.19;;;-3.44;93.61
21504;BME280;10913;51.992;9.228;2023-03-01T04:39:58;101714.09;;;-3.45;93.46
21504;BME280;10913;51.992;9.228;2023-03-01T04:42:23;101715.78;;;-3.46;93.29
21504;BME280;10913;51.992;9.228;2023-03-01T04:44:48;101714.66;;;-3.50;93.37
21504;BME280;10913;51.992;9.228;2023-03-01T04:47:16;101723.06;;;-3.52;93.94
21504;BME280;10913;51.992;9.228;2023-03-01T04:49:42;101716.22;;;-3.52;94.32
21504;BME280;10913;51.992;9.228;2023-03-01T04:52:07;101716.22;;;-3.52;94.20
21504;BME280;10913;51.992;9.228;2023-03-01T04:54:35;101714.53;;;-3.51;94.51
21504;BME280;10913;51.992;9.228;2023-03-01T04:57:01;101711.94;;;-3.51;94.37
21504;BME280;10913;51.992;9.228;2023-03-01T04:59:27;101718.00;;;-3.51;94.51
21504;BME280;10913;51.992;9.228;2023-03-01T05:01:53;101717.22;;;-3.50;94.30
21504;BME280;10913;51.992;9.228;2023-03-01T05:04:23;101722.28;;;-3.51;94.14
21504;BME280;10913;51.992;9.228;2023-03-01T05:06:49;101728.91;;;-3.55;93.87
21504;BME280;10913;51.992;9.228;2023-03-01T05:09:14;101723.41;;;-3.59;93.96
21504;BME280;10913;51.992;9.228;2023-03-01T05:11:40;101721.63;;;-3.60;93.55
21504;BME280;10913;51.992;9.228;2023-03-01T05:14:06;101711.06;;;-3.63;93.95
21504;BME280;10913;51.992;9.228;2023-03-01T05:16:32;101714.44;;;-3.64;94.06
21504;BME280;10913;51.992;9.228;2023-03-01T05:18:58;101713.44;;;-3.66;94.18
21504;BME280;10913;51.992;9.228;2023-03-01T05:21:25;101704.91;;;-3.65;94.24
21504;BME280;10913;51.992;9.228;2023-03-01T05:23:51;101709.06;;;-3.67;93.85
21504;BME280;10913;51.992;9.228;2023-03-01T05:26:18;101698.50;;;-3.70;94.22
21504;BME280;10913;51.992;9.228;2023-03-01T05:28:45;101703.66;;;-3.70;93.90
21504;BME280;10913;51.992;9.228;2023-03-01T05:31:10;101688.84;;;-3.73;94.16
21504;BME280;10913;51.992;9.228;2023-03-01T05:33:37;101695.69;;;-3.73;93.97
21504;BME280;10913;51.992;9.228;2023-03-01T05:36:04;101698.28;;;-3.73;93.65
21504;BME280;10913;51.992;9.228;2023-03-01T05:38:29;101694.69;;;-3.75;93.24
21504;BME280;10913;51.992;9.228;2023-03-01T05:40:55;101700.63;;;-3.76;93.53
21504;BME280;10913;51.992;9.228;2023-03-01T05:43:20;101699.63;;;-3.78;93.33
21504;BME280;10913;51.992;9.228;2023-03-01T05:45:46;101695.94;;;-3.82;93.50
21504;BME280;10913;51.992;9.228;2023-03-01T05:48:12;101705.25;;;-3.84;93.34
21504;BME280;10913;51.992;9.228;2023-03-01T05:50:40;101704.34;;;-3.85;93.14
21504;BME280;10913;51.992;9.228;2023-03-01T05:53:10;101709.41;;;-3.86;93.25
21504;BME280;10913;51.992;9.228;2023-03-01T05:55:36;101716.13;;;-3.88;93.39
21504;BME280;10913;51.992;9.228;2023-03-01T05:58:03;101711.63;;;-3.91;93.75
21504;BME280;10913;51.992;9.228;2023-03-01T06:00:30;101709.06;;;-3.91;93.69
21504;BME280;10913;51.992;9.228;2023-03-01T06:02:57;101711.63;;;-3.91;93.59
21504;BME280;10913;51.992;9.228;2023-03-01T06:05:23;101705.69;;;-3.90;93.47
21504;BME280;10913;51.992;9.228;2023-03-01T06:07:49;101709.16;;;-3.89;93.75
21504;BME280;10913;51.992;9.228;2023-03-01T06:10:16;101699.75;;;-3.89;93.94
21504;BME280;10913;51.992;9.228;2023-03-01T06:12:43;101711.97;;;-3.86;93.44
21504;BME280;10913;51.992;9.228;2023-03-01T06:15:10;101707.47;;;-3.89;93.16
21504;BME280;10913;51.992;9.228;2023-03-01T06:17:37;101706.34;;;-3.92;93.49
21504;BME280;10913;51.992;9.228;2023-03-01T06:20:05;101718.25;;;-3.94;93.83
21504;BME280;10913;51.992;9.228;2023-03-01T06:22:31;101719.16;;;-3.94;94.35
21504;BME280;10913;51.992;9.228;2023-03-01T06:24:56;101716.00;;;-3.90;94.18
21504;BME280;10913;51.992;9.228;2023-03-01T06:27:21;101716.91;;;-3.89;93.71
21504;BME280;10913;51.992;9.228;2023-03-01T06:29:47;101716.25;;;-3.87;93.43
21504;BME280;10913;51.992;9.228;2023-03-01T06:32:12;101712.31;;;-3.82;93.46
21504;BME280;10913;51.992;9.228;2023-03-01T06:34:37;101712.75;;;-3.75;92.78
21504;BME280;10913;51.992;9.228;2023-03-01T06:37:04;101710.50;;;-3.71;92.25
21504;BME280;10913;51.992;9.228;2023-03-01T06:39:31;101705.69;;;-3.66;92.18
21504;BME280;10913;51.992;9.228;2023-03-01T06:41:56;101705.91;;;-3.63;92.36
21504;BME280;10913;51.992;9.228;2023-03-01T06:44:22;101707.13;;;-3.58;92.48
21504;BME280;10913;51.992;9.228;2023-03-01T06:46:47;101709.25;;;-3.41;92.60
21504;BME280;10913;51.992;9.228;2023-03-01T06:49:12;101710.97;;;-2.80;92.40
21504;BME280;10913;51.992;9.228;2023-03-01T06:51:38;101710.88;;;-1.79;91.59
21504;BME280;10913;51.992;9.228;2023-03-01T06:54:04;101703.78;;;-0.30;87.75
21504;BME280;10913;51.992;9.228;2023-03-01T06:56:30;101695.41;;;1.45;81.73
21504;BME280;10913;51.992;9.228;2023-03-01T06:58:55;101683.91;;;3.36;75.12
21504;BME280;10913;51.992;9.228;2023-03-01T07:01:27;101680.72;;;5.13;69.53
21504;BME280;10913;51.992;9.228;2023-03-01T07:03:56;101666.16;;;5.93;65.34
21504;BME280;10913;51.992;9.228;2023-03-01T07:06:25;101671.69;;;6.02;63.83
21504;BME280;10913;51.992;9.228;2023-03-01T07:09:14;101672.41;;;5.72;63.64
21504;BME280;10913;51.992;9.228;2023-03-01T07:11:47;101668.00;;;5.24;63.90
21504;BME280;10913;51.992;9.228;2023-03-01T07:14:41;101668.16;;;4.82;64.94
21504;BME280;10913;51.992;9.228;2023-03-01T07:17:17;101654.88;;;4.76;65.09
21504;BME280;10913;51.992;9.228;2023-03-01T07:19:49;101649.25;;;4.44;65.49
21504;BME280;10913;51.992;9.228;2023-03-01T07:22:23;101657.59;;;4.57;65.60
21504;BME280;10913;51.992;9.228;2023-03-01T07:27:57;101631.66;;;6.07;63.44
21504;BME280;10913;51.992;9.228;2023-03-01T07:30:24;101641.88;;;6.82;61.74
21504;BME280;10913;51.992;9.228;2023-03-01T07:32:51;101639.47;;;7.19;61.45
21504;BME280;10913;51.992;9.228;2023-03-01T07:35:17;101632.00;;;7.99;59.73
21504;BME280;10913;51.992;9.228;2023-03-01T07:37:42;101620.75;;;9.67;57.00
21504;BME280;10913;51.992;9.228;2023-03-01T07:40:08;101621.75;;;11.55;53.00
21504;BME280;10913;51.992;9.228;2023-03-01T07:42:34;101618.44;;;12.92;50.73
21504;BME280;10913;51.992;9.228;2023-03-01T07:44:59;101606.34;;;14.10;49.03
21504;BME280;10913;51.992;9.228;2023-03-01T07:47:24;101599.03;;;15.19;46.79
21504;BME280;10913;51.992;9.228;2023-03-01T07:49:50;101595.72;;;16.17;45.52
21504;BME280;10913;51.992;9.228;2023-03-01T07:52:15;101590.34;;;17.05;44.08
21504;BME280;10913;51.992;9.228;2023-03-01T07:54:42;101594.53;;;17.87;43.21
21504;BME280;10913;51.992;9.228;2023-03-01T07:57:09;101593.06;;;18.72;41.99
21504;BME280;10913;51.992;9.228;2023-03-01T07:59:35;101584.28;;;19.50;41.42
21504;BME280;10913;51.992;9.228;2023-03-01T08:02:00;101586.84;;;19.92;40.53
21504;BME280;10913;51.992;9.228;2023-03-01T08:04:26;101588.44;;;20.35;40.21
21504;BME280;10913;51.992;9.228;2023-03-01T08:06:52;101578.50;;;20.72;39.51
21504;BME280;10913;51.992;9.228;2023-03-01T08:09:18;101575.22;;;21.23;39.42
21504;BME280;10913;51.992;9.228;2023-03-01T08:11:43;101564.59;;;21.48;39.05
21504;BME280;10913;51.992;9.228;2023-03-01T08:14:09;101563.31;;;21.59;38.63
21504;BME280;10913;51.992;9.228;2023-03-01T08:16:35;101564.38;;;21.82;38.61
21504;BME280;10913;51.992;9.228;2023-03-01T08:19:06;101560.28;;;22.24;38.45
21504;BME280;10913;51.992;9.228;2023-03-01T08:21:31;101557.38;;;22.55;38.17
21504;BME280;10913;51.992;9.228;2023-03-01T08:23:57;101557.69;;;22.71;37.93
21504;BME280;10913;51.992;9.228;2023-03-01T08:26:22;101552.38;;;22.45;37.53
21504;BME280;10913;51.992;9.228;2023-03-01T08:28:48;101553.00;;;22.53;37.87
21504;BME280;10913;51.992;9.228;2023-03-01T08:31:30;101555.06;;;22.45;37.73
21504;BME280;10913;51.992;9.228;2023-03-01T08:33:58;101559.28;;;22.00;37.83
21504;BME280;10913;51.992;9.228;2023-03-01T08:36:27;101561.75;;;22.08;37.58
21504;BME280;10913;51.992;9.228;2023-03-01T08:38:52;101563.59;;;22.06;37.46
21504;BME280;10913;51.992;9.228;2023-03-01T08:41:18;101556.94;;;22.18;37.11
21504;BME280;10913;51.992;9.228;2023-03-01T08:43:44;101555.41;;;22.36;36.94
21504;BME280;10913;51.992;9.228;2023-03-01T08:48:35;101547.66;;;23.23;36.63
21504;BME280;10913;51.992;9.228;2023-03-01T08:51:15;101549.78;;;23.15;36.73
21504;BME280;10913;51.992;9.228;2023-03-01T08:53:41;101555.69;;;23.24;36.41
21504;BME280;10913;51.992;9.228;2023-03-01T08:56:07;101547.50;;;23.49;36.44
21504;BME280;10913;51.992;9.228;2023-03-01T08:58:32;101551.06;;;23.95;35.80
21504;BME280;10913;51.992;9.228;2023-03-01T09:00:58;101558.69;;;23.84;35.70
21504;BME280;10913;51.992;9.228;2023-03-01T09:03:24;101551.03;;;23.51;35.95
21504;BME280;10913;51.992;9.228;2023-03-01T09:05:50;101549.25;;;23.28;36.04
21504;BME280;10913;51.992;9.228;2023-03-01T09:08:17;101539.53;;;22.78;36.40
21504;BME280;10913;51.992;9.228;2023-03-01T09:10:43;101542.75;;;22.62;36.41
21504;BME280;10913;51.992;9.228;2023-03-01T09:13:08;101542.09;;;22.31;37.14
21504;BME280;10913;51.992;9.228;2023-03-01T09:15:33;101544.06;;;22.26;37.05
21504;BME280;10913;51.992;9.228;2023-03-01T09:17:59;101546.41;;;22.10;37.02
21504;BME280;10913;51.992;9.228;2023-03-01T09:20:25;101541.13;;;21.53;37.03
21504;BME280;10913;51.992;9.228;2023-03-01T09:22:50;101540.19;;;20.96;37.69
21504;BME280;10913;51.992;9.228;2023-03-01T09:25:16;101544.88;;;20.23;38.39
21504;BME280;10913;51.992;9.228;2023-03-01T09:27:41;101545.25;;;19.76;39.51
21504;BME280;10913;51.992;9.228;2023-03-01T09:30:07;101545.25;;;19.76;39.07
21504;BME280;10913;51.992;9.228;2023-03-01T09:32:33;101547.91;;;19.37;38.98
21504;BME280;10913;51.992;9.228;2023-03-01T09:34:58;101534.28;;;19.08;39.46
21504;BME280;10913;51.992;9.228;2023-03-01T09:37:31;101539.75;;;19.02;40.53
21504;BME280;10913;51.992;9.228;2023-03-01T09:39:57;101532.50;;;19.07;39.64
21504;BME280;10913;51.992;9.228;2023-03-01T09:42:22;101529.91;;;18.61;40.60
21504;BME280;10913;51.992;9.228;2023-03-01T09:44:51;101529.34;;;18.42;40.88
21504;BME280;10913;51.992;9.228;2023-03-01T09:47:22;101524.91;;;18.41;41.39
21504;BME280;10913;51.992;9.228;2023-03-01T09:52:52;101532.75;;;17.47;39.92
21504;BME280;10913;51.992;9.228;2023-03-01T09:55:29;101529.22;;;16.80;41.25
21504;BME280;10913;51.992;9.228;2023-03-01T09:58:00;101535.00;;;16.42;41.60
21504;BME280;10913;51.992;9.228;2023-03-01T10:00:43;101538.88;;;16.12;42.46
21504;BME280;10913;51.992;9.228;2023-03-01T10:08:29;101532.25;;;15.50;43.04
21504;BME280;10913;51.992;9.228;2023-03-01T10:10:59;101528.94;;;15.12;43.68
21504;BME280;10913;51.992;9.228;2023-03-01T10:16:14;101539.94;;;13.95;44.62
21504;BME280;10913;51.992;9.228;2023-03-01T10:18:45;101537.22;;;13.40;46.31
21504;BME280;10913;51.992;9.228;2023-03-01T10:21:19;101529.09;;;12.90;46.53
21504;BME280;10913;51.992;9.228;2023-03-01T10:23:45;101535.38;;;13.11;46.98
21504;BME280;10913;51.992;9.228;2023-03-01T10:29:08;101526.59;;;13.32;46.92
21504;BME280;10913;51.992;9.228;2023-03-01T10:34:14;101520.34;;;13.12;47.56
21504;BME280;10913;51.992;9.228;2023-03-01T10:36:41;101523.81;;;12.93;47.78
21504;BME280;10913;51.992;9.228;2023-03-01T10:39:19;101524.75;;;13.08;47.55
21504;BME280;10913;51.992;9.228;2023-03-01T10:42:00;101523.97;;;13.37;47.49
21504;BME280;10913;51.992;9.228;2023-03-01T10:44:42;101523.94;;;13.17;46.94
21504;BME280;10913;51.992;9.228;2023-03-01T10:52:23;101534.41;;;11.59;49.47
21504;BME280;10913;51.992;9.228;2023-03-01T10:54:55;101529.13;;;11.59;48.69
21504;BME280;10913;51.992;9.228;2023-03-01T10:57:28;101526.44;;;11.53;49.48
21504;BME280;10913;51.992;9.228;2023-03-01T11:00:22;101532.53;;;11.46;49.74
21504;BME280;10913;51.992;9.228;2023-03-01T11:03:03;101520.41;;;11.68;50.49
21504;BME280;10913;51.992;9.228;2023-03-01T11:05:29;101531.00;;;11.69;50.11
21504;BME280;10913;51.992;9.228;2023-03-01T11:07:59;101525.59;;;11.57;49.32
21504;BME280;10913;51.992;9.228;2023-03-01T11:10:26;101521.59;;;11.10;50.10
21504;BME280;10913;51.992;9.228;2023-03-01T11:13:26;101521.63;;;11.11;49.80
21504;BME280;10913;51.992;9.228;2023-03-01T11:15:59;101510.44;;;10.58;49.54
21504;BME280;10913;51.992;9.228;2023-03-01T11:18:25;101518.75;;;10.25;50.04
21504;BME280;10913;51.992;9.228;2023-03-01T11:20:55;101506.03;;;9.99;51.60
21504;BME280;10913;51.992;9.228;2023-03-01T11:23:21;101508.66;;;9.96;51.79
21504;BME280;10913;51.992;9.228;2023-03-01T11:25:59;101511.28;;;9.96;51.87
21504;BME280;10913;51.992;9.228;2023-03-01T11:28:28;101520.72;;;9.82;52.02
21504;BME280;10913;51.992;9.228;2023-03-01T11:33:48;101508.09;;;9.63;51.79
21504;BME280;10913;51.992;9.228;2023-03-01T11:38:40;101502.91;;;9.67;51.11
21504;BME280;10913;51.992;9.228;2023-03-01T11:41:18;101508.66;;;9.45;50.78
21504;BME280;10913;51.992;9.228;2023-03-01T11:52:09;101504.44;;;9.05;51.87
21504;BME280;10913;51.992;9.228;2023-03-01T11:59:59;101488.47;;;8.96;51.76
21504;BME280;10913;51.992;9.228;2023-03-01T12:02:50;101477.34;;;9.12;52.45
21504;BME280;10913;51.992;9.228;2023-03-01T12:10:42;101475.94;;;9.32;51.07
21504;BME280;10913;51.992;9.228;2023-03-01T12:13:16;101472.25;;;9.24;52.33
21504;BME280;10913;51.992;9.228;2023-03-01T12:24:10;101466.25;;;9.31;51.28
21504;BME280;10913;51.992;9.228;2023-03-01T12:26:43;101456.34;;;9.20;52.95
21504;BME280;10913;51.992;9.228;2023-03-01T12:32:05;101455.53;;;9.22;51.86
21504;BME280;10913;51.992;9.228;2023-03-01T12:45:48;101427.34;;;9.17;50.88
21504;BME280;10913;51.992;9.228;2023-03-01T12:50:50;101416.69;;;9.12;52.74
21504;BME280;10913;51.992;9.228;2023-03-01T12:55:48;101408.72;;;9.09;53.64
21504;BME280;10913;51.992;9.228;2023-03-01T13:06:34;101405.75;;;9.42;51.38
21504;BME280;10913;51.992;9.228;2023-03-01T13:17:53;101389.59;;;9.22;53.07
21504;BME280;10913;51.992;9.228;2023-03-01T13:20:21;101388.69;;;9.19;52.59
21504;BME280;10913;51.992;9.228;2023-03-01T13:22:47;101385.19;;;9.18;52.14
21504;BME280;10913;51.992;9.228;2023-03-01T13:25:24;101383.31;;;9.13;52.43
21504;BME280;10913;51.992;9.228;2023-03-01T13:27:50;101385.91;;;9.10;53.60
21504;BME280;10913;51.992;9.228;2023-03-01T13:35:53;101369.34;;;9.18;53.67
21504;BME280;10913;51.992;9.228;2023-03-01T13:41:04;101368.63;;;9.28;53.01
21504;BME280;10913;51.992;9.228;2023-03-01T13:43:32;101368.78;;;9.38;52.91
21504;BME280;10913;51.992;9.228;2023-03-01T13:45:59;101369.84;;;9.50;53.52
21504;BME280;10913;51.992;9.228;2023-03-01T13:48:30;101369.00;;;9.53;52.65
21504;BME280;10913;51.992;9.228;2023-03-01T13:51:03;101364.97;;;9.20;52.57
21504;BME280;10913;51.992;9.228;2023-03-01T13:53:31;101364.22;;;9.27;53.60
21504;BME280;10913;51.992;9.228;2023-03-01T13:56:02;101363.28;;;9.25;53.66
21504;BME280;10913;51.992;9.228;2023-03-01T14:03:22;101350.63;;;9.03;54.44
21504;BME280;10913;51.992;9.228;2023-03-01T14:06:19;101351.47;;;9.01;53.31
21504;BME280;10913;51.992;9.228;2023-03-01T14:08:46;101341.72;;;8.95;53.80
21504;BME280;10913;51.992;9.228;2023-03-01T14:19:30;101344.47;;;8.51;54.95
21504;BME280;10913;51.992;9.228;2023-03-01T14:22:04;101343.38;;;8.39;54.80
21504;BME280;10913;51.992;9.228;2023-03-01T14:24:40;101348.59;;;8.37;55.08
21504;BME280;10913;51.992;9.228;2023-03-01T14:27:11;101336.34;;;8.41;54.83
21504;BME280;10913;51.992;9.228;2023-03-01T14:29:39;101338.97;;;8.41;54.75
21504;BME280;10913;51.992;9.228;2023-03-01T14:32:22;101340.78;;;8.43;55.82
21504;BME280;10913;51.992;9.228;2023-03-01T14:34:50;101332.16;;;8.50;56.06
21504;BME280;10913;51.992;9.228;2023-03-01T14:39:44;101334.00;;;8.54;55.04
21504;BME280;10913;51.992;9.228;2023-03-01T14:42:09;101339.25;;;8.54;55.66
21504;BME280;10913;51.992;9.228;2023-03-01T14:44:34;101335.72;;;8.52;55.08
21504;BME280;10913;51.992;9.228;2023-03-01T14:47:03;101333.16;;;8.57;55.32
21504;BME280;10913;51.992;9.228;2023-03-01T14:49:30;101335.09;;;8.67;55.58
21504;BME280;10913;51.992;9.228;2023-03-01T14:51:59;101330.78;;;8.72;55.65
21504;BME280;10913;51.992;9.228;2023-03-01T14:54:31;101327.53;;;8.87;55.19
21504;BME280;10913;51.992;9.228;2023-03-01T14:57:01;101319.75;;;8.94;54.69
21504;BME280;10913;51.992;9.228;2023-03-01T14:59:27;101319.59;;;8.85;54.25
21504;BME280;10913;51.992;9.228;2023-03-01T15:01:55;101315.06;;;8.77;54.63
21504;BME280;10913;51.992;9.228;2023-03-01T15:04:23;101320.03;;;8.60;54.85
21504;BME280;10913;51.992;9.228;2023-03-01T15:06:54;101306.84;;;8.60;53.73
21504;BME280;10913;51.992;9.228;2023-03-01T15:09:20;101297.84;;;8.46;55.60